createdAt,value
2018-07-05T00:02:28.973Z,86.90
2018-07-05T00:05:08.645Z,88.30
2018-07-05T00:07:49.100Z,88.20
2018-07-05T00:10:28.879Z,87.70
2018-07-05T00:13:08.468Z,87.80
2018-07-05T00:15:47.932Z,87.30
2018-07-05T00:18:27.531Z,87.20
2018-07-05T00:21:07.244Z,86.60
2018-07-05T00:23:47.107Z,88.20
2018-07-05T00:26:26.778Z,88.30
2018-07-05T00:29:06.362Z,88.40
2018-07-05T00:31:45.917Z,88.20
2018-07-05T00:34:25.622Z,88.00
2018-07-05T00:37:05.451Z,88.30
2018-07-05T00:39:45.283Z,88.10
2018-07-05T00:42:25.043Z,88.30
2018-07-05T00:45:04.709Z,88.50
2018-07-05T00:47:44.347Z,89.20
2018-07-05T00:50:24.079Z,89.80
2018-07-05T00:53:03.827Z,89.80
2018-07-05T00:55:43.555Z,90.50
2018-07-05T00:58:23.239Z,90.80
2018-07-05T01:01:02.839Z,90.40
2018-07-05T01:03:42.641Z,88.70
2018-07-05T01:06:22.277Z,87.80
2018-07-05T01:09:02.060Z,87.70
2018-07-05T01:11:41.720Z,87.60
2018-07-05T01:14:21.331Z,88.10
2018-07-05T01:17:00.946Z,88.10
2018-07-05T01:19:40.728Z,87.80
2018-07-05T01:22:20.543Z,87.50
2018-07-05T01:25:00.335Z,87.40
2018-07-05T01:27:39.879Z,87.80
2018-07-05T01:30:19.934Z,87.90
2018-07-05T01:32:59.602Z,88.80
2018-07-05T01:35:39.419Z,89.30
2018-07-05T01:38:19.074Z,89.40
2018-07-05T01:40:58.951Z,90.00
2018-07-05T01:43:38.467Z,90.10
2018-07-05T01:46:18.100Z,90.10
2018-07-05T01:48:57.804Z,89.90
2018-07-05T01:51:37.511Z,91.00
2018-07-05T01:54:17.162Z,91.30
2018-07-05T01:56:56.850Z,90.60
2018-07-05T01:59:36.615Z,89.90
2018-07-05T02:02:16.264Z,90.40
2018-07-05T02:04:55.979Z,90.50
2018-07-05T02:07:35.587Z,90.50
2018-07-05T02:10:15.262Z,91.00
2018-07-05T02:12:54.746Z,90.60
2018-07-05T02:15:34.135Z,90.60
2018-07-05T02:18:13.704Z,91.00
2018-07-05T02:20:53.375Z,91.20
2018-07-05T02:23:32.899Z,90.80
2018-07-05T02:28:46.211Z,91.90
2018-07-05T02:31:25.811Z,92.30
2018-07-05T02:34:09.526Z,92.70
2018-07-05T02:36:49.264Z,93.10
2018-07-05T02:39:34.539Z,93.00
2018-07-05T02:42:14.632Z,92.70
2018-07-05T02:44:54.947Z,92.40
2018-07-05T02:47:34.599Z,92.20
2018-07-05T02:50:14.359Z,92.30
2018-07-05T02:52:53.840Z,92.40
2018-07-05T02:55:33.355Z,92.30
2018-07-05T02:58:12.862Z,91.80
2018-07-05T03:00:52.540Z,91.30
2018-07-05T03:03:32.166Z,91.20
2018-07-05T03:06:11.775Z,91.20
2018-07-05T03:08:51.371Z,91.20
2018-07-05T03:11:30.995Z,90.90
2018-07-05T03:14:10.588Z,91.30
2018-07-05T03:16:50.094Z,91.30
2018-07-05T03:19:29.831Z,91.00
2018-07-05T03:22:09.536Z,91.20
2018-07-05T03:24:49.108Z,91.50
2018-07-05T03:27:28.775Z,91.90
2018-07-05T03:30:08.521Z,91.80
2018-07-05T03:32:48.372Z,91.70
2018-07-05T03:35:27.931Z,91.80
2018-07-05T03:38:08.011Z,92.00
2018-07-05T03:40:47.879Z,92.00
2018-07-05T03:43:27.394Z,92.30
2018-07-05T03:46:07.031Z,92.30
2018-07-05T03:48:46.919Z,92.10
2018-07-05T03:51:26.855Z,92.00
2018-07-05T03:56:40.195Z,91.80
2018-07-05T03:59:19.974Z,92.00
2018-07-05T04:01:59.734Z,91.90
2018-07-05T04:04:39.444Z,92.00
2018-07-05T04:07:19.216Z,91.80
2018-07-05T04:09:58.867Z,91.90
2018-07-05T04:12:38.511Z,92.00
2018-07-05T04:15:18.354Z,92.20
2018-07-05T04:17:58.228Z,92.00
2018-07-05T04:20:38.060Z,92.10
2018-07-05T04:23:17.819Z,92.40
2018-07-05T04:25:57.439Z,92.50
2018-07-05T04:31:11.780Z,92.00
2018-07-05T04:33:51.510Z,92.70
2018-07-05T04:36:31.202Z,93.00
2018-07-05T04:39:10.784Z,92.80
2018-07-05T04:41:50.414Z,93.00
2018-07-05T04:44:30.036Z,92.90
2018-07-05T04:47:09.626Z,92.90
2018-07-05T04:49:49.386Z,93.10
2018-07-05T04:52:29.154Z,93.40
2018-07-05T04:55:08.968Z,93.30
2018-07-05T04:57:48.472Z,93.30
2018-07-05T05:00:28.184Z,93.60
2018-07-05T05:03:07.871Z,93.30
2018-07-05T05:05:47.568Z,92.70
2018-07-05T05:08:27.283Z,92.50
2018-07-05T05:11:06.750Z,92.70
2018-07-05T05:13:46.346Z,92.50
2018-07-05T05:16:25.898Z,92.40
2018-07-05T05:19:05.547Z,92.30
2018-07-05T05:21:45.115Z,92.20
2018-07-05T05:24:24.944Z,92.70
2018-07-05T05:27:04.845Z,92.60
2018-07-05T05:32:18.082Z,92.10
2018-07-05T05:34:57.737Z,91.80
2018-07-05T05:37:37.440Z,91.70
2018-07-05T05:40:17.083Z,91.80
2018-07-05T05:42:56.620Z,91.90
2018-07-05T05:45:36.347Z,91.90
2018-07-05T05:48:16.132Z,92.20
2018-07-05T05:50:55.752Z,92.00
2018-07-05T05:53:35.542Z,92.10
2018-07-05T05:56:15.291Z,91.80
2018-07-05T05:58:54.890Z,91.90
2018-07-05T06:01:34.498Z,91.40
2018-07-05T06:04:14.131Z,91.10
2018-07-05T06:06:53.875Z,91.10
2018-07-05T06:09:33.470Z,91.50
2018-07-05T06:12:13.234Z,91.70
2018-07-05T06:14:52.887Z,92.40
2018-07-05T06:17:32.801Z,93.00
2018-07-05T06:20:12.550Z,92.60
2018-07-05T06:22:52.298Z,92.30
2018-07-05T06:25:32.051Z,91.70
2018-07-05T06:28:11.692Z,91.30
2018-07-05T06:30:51.343Z,90.90
2018-07-05T06:33:31.048Z,90.90
2018-07-05T06:36:10.666Z,90.30
2018-07-05T06:38:50.351Z,90.30
2018-07-05T06:41:30.077Z,89.90
2018-07-05T06:44:09.886Z,89.90
2018-07-05T06:46:50.393Z,89.10
2018-07-05T06:49:30.135Z,89.10
2018-07-05T06:52:09.943Z,88.80
2018-07-05T06:54:49.676Z,88.20
2018-07-05T06:57:29.387Z,86.80
2018-07-05T07:00:09.295Z,85.40
2018-07-05T07:02:48.967Z,84.60
2018-07-05T07:05:28.876Z,83.40
2018-07-05T07:08:08.886Z,81.80
2018-07-05T07:10:48.587Z,79.60
2018-07-05T07:13:28.187Z,79.00
2018-07-05T07:16:07.950Z,78.10
2018-07-05T07:18:47.787Z,77.20
2018-07-05T07:21:27.354Z,75.50
2018-07-05T07:24:07.035Z,70.80
2018-07-05T07:26:46.724Z,73.10
2018-07-05T07:29:26.630Z,73.20
2018-07-05T07:32:06.251Z,73.50
2018-07-05T07:34:45.911Z,73.60
2018-07-05T07:37:25.595Z,73.90
2018-07-05T07:40:05.255Z,73.50
2018-07-05T07:42:32.528Z,73.70
2018-07-05T07:44:59.807Z,74.10
2018-07-05T07:47:27.076Z,74.80
2018-07-05T07:49:54.382Z,73.80
2018-07-05T07:52:21.646Z,72.90
2018-07-05T07:54:48.949Z,73.00
2018-07-05T07:57:16.235Z,73.90
2018-07-05T07:59:43.523Z,72.70
2018-07-05T08:02:10.792Z,74.20
2018-07-05T08:04:38.087Z,74.30
2018-07-05T08:07:05.355Z,74.50
2018-07-05T08:09:32.643Z,74.80
2018-07-05T08:12:00.155Z,74.30
2018-07-05T08:14:27.446Z,73.80
2018-07-05T08:16:54.759Z,72.80
2018-07-05T08:19:22.043Z,73.70
2018-07-05T08:21:49.311Z,73.40
2018-07-05T08:24:16.602Z,73.30
2018-07-05T08:26:43.872Z,73.30
2018-07-05T08:29:11.162Z,73.40
2018-07-05T08:31:38.432Z,73.80
2018-07-05T08:34:05.726Z,74.50
2018-07-05T08:36:33.004Z,73.90
2018-07-05T08:39:00.327Z,74.00
2018-07-05T08:41:27.607Z,73.70
2018-07-05T08:43:54.934Z,72.70
2018-07-05T08:46:22.202Z,71.20
2018-07-05T08:48:50.051Z,71.50
2018-07-05T08:51:17.363Z,71.30
2018-07-05T08:53:44.630Z,70.30
2018-07-05T08:56:11.919Z,70.90
2018-07-05T08:58:39.182Z,71.50
2018-07-05T09:01:06.475Z,70.90
2018-07-05T09:03:33.751Z,70.60
2018-07-05T09:06:01.048Z,70.40
2018-07-05T09:08:28.354Z,70.20
2018-07-05T09:10:55.643Z,70.30
2018-07-05T09:13:22.912Z,70.60
2018-07-05T09:15:50.203Z,70.70
2018-07-05T09:18:17.539Z,71.30
2018-07-05T09:20:44.778Z,71.10
2018-07-05T09:23:12.115Z,70.40
2018-07-05T09:25:39.358Z,70.80
2018-07-05T09:28:06.627Z,73.10
2018-07-05T09:30:33.912Z,74.60
2018-07-05T09:33:01.180Z,78.10
2018-07-05T09:35:28.551Z,80.20
2018-07-05T09:37:55.832Z,81.70
2018-07-05T09:40:23.123Z,83.10
2018-07-05T09:42:50.387Z,82.50
2018-07-05T09:45:17.691Z,83.20
2018-07-05T09:47:44.954Z,86.30
2018-07-05T09:50:12.239Z,87.20
2018-07-05T09:52:39.590Z,88.60
2018-07-05T09:55:06.819Z,88.30
2018-07-05T10:00:01.629Z,88.10
2018-07-05T10:02:28.895Z,87.50
2018-07-05T10:04:56.184Z,88.60
2018-07-05T10:07:23.463Z,88.30
2018-07-05T10:09:50.811Z,89.90
2018-07-05T10:12:18.087Z,88.20
2018-07-05T10:14:45.379Z,90.00
2018-07-05T10:17:12.643Z,86.50
2018-07-05T10:19:39.931Z,87.80
2018-07-05T10:22:07.211Z,88.60
2018-07-05T10:24:34.480Z,87.00
2018-07-05T10:27:01.778Z,86.90
2018-07-05T10:29:41.766Z,86.60
2018-07-05T10:32:21.557Z,88.40
2018-07-05T10:34:48.876Z,88.60
2018-07-05T10:37:20.371Z,87.80
2018-07-05T10:39:59.856Z,87.50
2018-07-05T10:42:39.908Z,87.30
2018-07-05T10:45:19.482Z,89.10
2018-07-05T10:47:59.687Z,88.60
2018-07-05T10:53:13.195Z,87.80
2018-07-05T10:55:53.015Z,86.90
2018-07-05T10:58:32.878Z,88.90
2018-07-05T11:01:12.701Z,87.90
2018-07-05T11:03:52.488Z,87.60
2018-07-05T11:06:32.187Z,87.50
2018-07-05T11:09:11.939Z,86.80
2018-07-05T11:11:51.938Z,87.50
2018-07-05T11:14:31.653Z,85.40
2018-07-05T11:17:11.155Z,82.80
2018-07-05T11:19:50.794Z,84.60
2018-07-05T11:22:30.379Z,83.40
2018-07-05T11:25:10.123Z,83.10
2018-07-05T11:27:49.882Z,84.80
2018-07-05T11:30:29.784Z,82.90
2018-07-05T11:33:09.411Z,84.50
2018-07-05T11:35:49.095Z,83.70
2018-07-05T11:38:28.640Z,82.50
2018-07-05T11:41:08.297Z,83.00
2018-07-05T11:43:48.044Z,81.90
2018-07-05T11:46:27.707Z,83.00
2018-07-05T11:49:07.409Z,84.20
2018-07-05T11:51:47.166Z,85.00
2018-07-05T11:54:26.738Z,85.70
2018-07-05T11:57:06.427Z,87.10
2018-07-05T11:59:46.107Z,85.70
2018-07-05T12:02:25.806Z,86.10
2018-07-05T12:05:05.464Z,85.30
2018-07-05T12:07:45.237Z,84.40
2018-07-05T12:10:25.090Z,84.80
2018-07-05T12:13:04.767Z,85.90
2018-07-05T12:15:44.470Z,84.90
2018-07-05T12:18:24.150Z,83.90
2018-07-05T12:21:03.983Z,81.90
2018-07-05T12:23:43.730Z,82.50
2018-07-05T12:26:23.298Z,82.10
2018-07-05T12:29:03.024Z,80.80
2018-07-05T12:31:42.722Z,79.40
2018-07-05T12:34:22.430Z,78.50
2018-07-05T12:37:02.251Z,79.40
2018-07-05T12:39:42.083Z,75.20
2018-07-05T12:42:21.739Z,73.50
2018-07-05T12:45:01.418Z,73.20
2018-07-05T12:47:41.094Z,72.30
2018-07-05T12:50:20.955Z,72.30
2018-07-05T12:53:00.858Z,71.60
2018-07-05T12:55:40.510Z,70.10
2018-07-05T12:58:20.243Z,70.90
2018-07-05T13:00:59.895Z,71.10
2018-07-05T13:03:39.507Z,70.30
2018-07-05T13:06:19.142Z,69.20
2018-07-05T13:08:58.966Z,68.50
2018-07-05T13:11:38.588Z,68.30
2018-07-05T13:14:18.306Z,66.20
2018-07-05T13:16:57.883Z,65.70
2018-07-05T13:19:37.539Z,66.70
2018-07-05T13:22:17.152Z,65.90
2018-07-05T13:24:56.787Z,66.50
2018-07-05T13:27:36.495Z,66.30
2018-07-05T13:30:16.234Z,65.70
2018-07-05T13:32:56.056Z,65.60
2018-07-05T13:35:35.676Z,65.90
2018-07-05T13:38:15.659Z,66.30
2018-07-05T13:40:55.432Z,65.90
2018-07-05T13:43:35.243Z,65.50
2018-07-05T13:46:14.982Z,65.90
2018-07-05T13:48:54.862Z,66.00
2018-07-05T13:51:34.690Z,67.20
2018-07-05T13:54:14.415Z,67.10
2018-07-05T13:56:54.135Z,66.40
2018-07-05T13:59:33.828Z,65.10
2018-07-05T14:02:13.641Z,65.20
2018-07-05T14:04:53.154Z,64.60
2018-07-05T14:07:32.715Z,65.20
2018-07-05T14:10:12.678Z,65.30
2018-07-05T14:12:52.449Z,65.00
2018-07-05T14:15:32.071Z,65.00
2018-07-05T14:18:11.673Z,64.70
2018-07-05T14:20:51.202Z,65.20
2018-07-05T14:23:30.999Z,64.30
2018-07-05T14:26:10.630Z,65.20
2018-07-05T14:28:50.402Z,64.40
2018-07-05T14:31:30.285Z,64.50
2018-07-05T14:34:10.110Z,63.80
2018-07-05T14:36:49.692Z,64.60
2018-07-05T14:42:02.827Z,65.00
2018-07-05T14:44:42.491Z,65.20
2018-07-05T14:47:22.395Z,64.20
2018-07-05T14:50:02.200Z,65.10
2018-07-05T14:52:41.906Z,65.00
2018-07-05T14:55:21.463Z,65.00
2018-07-05T14:58:01.071Z,64.80
2018-07-05T15:00:40.818Z,65.40
2018-07-05T15:03:20.532Z,64.80
2018-07-05T15:06:00.139Z,64.90
2018-07-05T15:08:39.767Z,65.40
2018-07-05T15:11:19.487Z,72.60
2018-07-05T15:13:59.038Z,76.30
2018-07-05T15:16:38.823Z,76.00
2018-07-05T15:19:18.750Z,76.30
2018-07-05T15:21:58.383Z,76.30
2018-07-05T15:24:38.201Z,76.30
2018-07-05T15:27:17.736Z,76.20
2018-07-05T15:29:57.178Z,75.20
2018-07-05T15:32:36.576Z,75.80
2018-07-05T15:35:16.102Z,75.10
2018-07-05T15:37:55.751Z,76.80
2018-07-05T15:40:35.137Z,76.10
2018-07-05T15:43:14.633Z,76.20
2018-07-05T15:45:54.161Z,76.80
2018-07-05T15:48:33.644Z,75.50
2018-07-05T15:51:13.149Z,75.30
2018-07-05T15:53:52.698Z,73.20
2018-07-05T15:56:32.302Z,73.20
2018-07-05T15:59:11.858Z,71.10
2018-07-05T16:01:51.335Z,71.00
2018-07-05T16:04:30.844Z,73.90
2018-07-05T16:09:44.508Z,75.40
2018-07-05T16:12:24.131Z,75.60
2018-07-05T16:15:03.875Z,75.70
2018-07-05T16:17:43.616Z,75.40
2018-07-05T16:20:23.544Z,75.90
2018-07-05T16:23:03.259Z,75.20
2018-07-05T16:25:43.154Z,74.20
2018-07-05T16:28:23.012Z,74.40
2018-07-05T16:31:02.825Z,73.90
2018-07-05T16:33:42.590Z,72.80
2018-07-05T16:36:22.299Z,75.20
2018-07-05T16:39:02.025Z,74.50
2018-07-05T16:41:41.694Z,74.80
2018-07-05T16:44:21.407Z,74.70
2018-07-05T16:47:00.775Z,73.70
2018-07-05T16:49:40.391Z,73.70
2018-07-05T16:52:19.982Z,74.80
2018-07-05T16:54:59.707Z,74.70
2018-07-05T16:57:39.375Z,74.10
2018-07-05T17:00:19.182Z,74.80
2018-07-05T17:02:58.816Z,73.20
2018-07-05T17:05:38.495Z,72.40
2018-07-05T17:08:18.235Z,73.00
2018-07-05T17:10:58.155Z,72.70
2018-07-05T17:13:37.713Z,67.60
2018-07-05T17:16:17.539Z,64.80
2018-07-05T17:18:57.223Z,64.60
2018-07-05T17:21:36.871Z,65.60
2018-07-05T17:24:16.473Z,66.90
2018-07-05T17:26:56.072Z,67.10
2018-07-05T17:29:35.572Z,66.90
2018-07-05T17:32:14.990Z,66.90
2018-07-05T17:34:54.525Z,64.60
2018-07-05T17:37:33.995Z,64.10
2018-07-05T17:40:13.498Z,63.20
2018-07-05T17:42:53.098Z,62.40
2018-07-05T17:45:32.648Z,62.60
2018-07-05T17:48:12.206Z,62.20
2018-07-05T17:50:51.750Z,62.20
2018-07-05T17:53:31.743Z,62.30
2018-07-05T17:56:11.218Z,61.90
2018-07-05T17:58:50.768Z,62.20
2018-07-05T18:01:30.176Z,62.40
2018-07-05T18:04:09.832Z,61.30
2018-07-05T18:06:49.430Z,61.40
2018-07-05T18:09:28.827Z,61.10
2018-07-05T18:12:08.505Z,61.60
2018-07-05T18:14:48.179Z,61.00
2018-07-05T18:17:27.777Z,61.80
2018-07-05T18:20:07.567Z,61.50
2018-07-05T18:22:47.214Z,61.50
2018-07-05T18:25:26.799Z,62.30
2018-07-05T18:28:06.578Z,62.00
2018-07-05T18:30:46.135Z,62.20
2018-07-05T18:33:26.115Z,62.50
2018-07-05T18:36:05.919Z,62.40
2018-07-05T18:38:45.643Z,62.70
2018-07-05T18:41:25.395Z,63.00
2018-07-05T18:44:05.207Z,63.20
2018-07-05T18:46:45.090Z,63.40
2018-07-05T18:49:24.767Z,64.00
2018-07-05T18:52:04.528Z,64.00
2018-07-05T18:54:43.967Z,63.20
2018-07-05T18:57:23.503Z,63.70
2018-07-05T19:00:02.935Z,63.20
2018-07-05T19:02:42.331Z,63.40
2018-07-05T19:05:21.855Z,63.30
2018-07-05T19:08:01.407Z,63.20
2018-07-05T19:10:41.000Z,64.20
2018-07-05T19:13:20.642Z,63.70
2018-07-05T19:16:00.069Z,65.00
2018-07-05T19:18:39.479Z,65.70
2018-07-05T19:21:19.021Z,64.80
2018-07-05T19:23:58.435Z,64.60
2018-07-05T19:26:37.841Z,64.80
2018-07-05T19:29:17.404Z,64.90
2018-07-05T19:31:57.056Z,62.50
2018-07-05T19:34:36.656Z,64.00
2018-07-05T19:37:16.235Z,63.60
2018-07-05T19:39:55.835Z,66.00
2018-07-05T19:42:35.400Z,67.20
2018-07-05T19:45:14.899Z,67.60
2018-07-05T19:47:54.513Z,68.70
2018-07-05T19:50:33.991Z,68.00
2018-07-05T19:53:13.369Z,68.70
2018-07-05T19:55:53.043Z,68.70
2018-07-05T19:58:32.530Z,69.00
2018-07-05T20:01:12.039Z,69.30
2018-07-05T20:03:51.663Z,69.40
2018-07-05T20:06:31.279Z,70.10
2018-07-05T20:09:10.907Z,70.00
2018-07-05T20:11:55.983Z,70.50
2018-07-05T20:14:35.455Z,70.30
2018-07-05T20:17:14.960Z,70.50
2018-07-05T20:19:54.347Z,70.70
2018-07-05T20:22:34.071Z,70.90
2018-07-05T20:25:13.878Z,71.20
2018-07-05T20:27:53.738Z,71.90
2018-07-05T20:30:33.477Z,72.10
2018-07-05T20:33:13.146Z,72.50
2018-07-05T20:35:52.971Z,71.30
2018-07-05T20:38:33.152Z,71.90
2018-07-05T20:41:12.810Z,71.50
2018-07-05T20:43:52.925Z,71.30
2018-07-05T20:46:32.608Z,70.40
2018-07-05T20:49:12.383Z,70.50
2018-07-05T20:51:51.991Z,70.70
2018-07-05T20:54:31.443Z,71.20
2018-07-05T20:57:10.903Z,71.00
2018-07-05T20:59:50.611Z,72.10
2018-07-05T21:02:31.852Z,72.00
2018-07-05T21:05:11.582Z,72.00
2018-07-05T21:07:51.294Z,72.40
2018-07-05T21:10:33.672Z,73.00
2018-07-05T21:13:13.250Z,73.20
2018-07-05T21:15:52.740Z,73.90
2018-07-05T21:18:32.218Z,74.30
2018-07-05T21:21:11.608Z,74.40
2018-07-05T21:23:51.223Z,74.30
2018-07-05T21:26:30.691Z,73.30
2018-07-05T21:29:10.103Z,72.80
2018-07-05T21:31:49.627Z,72.80
2018-07-05T21:34:29.142Z,72.80
2018-07-05T21:37:08.754Z,73.50
2018-07-05T21:39:48.229Z,73.50
2018-07-05T21:42:27.617Z,73.20
2018-07-05T21:45:07.082Z,73.20
2018-07-05T21:47:47.267Z,73.70
2018-07-05T21:50:26.619Z,74.00
2018-07-05T21:53:06.101Z,73.90
2018-07-05T21:55:45.620Z,73.80
2018-07-05T21:58:25.342Z,73.50
2018-07-05T22:01:04.719Z,73.30
2018-07-05T22:03:44.199Z,73.10
2018-07-05T22:06:24.128Z,72.60
2018-07-05T22:09:04.681Z,72.70
2018-07-05T22:11:44.534Z,74.20
2018-07-05T22:14:24.335Z,74.80
2018-07-05T22:17:09.522Z,74.60
2018-07-05T22:19:54.806Z,74.40
2018-07-05T22:22:40.072Z,74.30
2018-07-05T22:25:25.250Z,74.40
2018-07-05T22:28:10.531Z,74.30
2018-07-05T22:30:55.759Z,74.30
2018-07-05T22:33:35.539Z,74.80
2018-07-05T22:36:15.086Z,75.10
2018-07-05T22:38:54.678Z,75.60
2018-07-05T22:41:34.342Z,76.30
2018-07-05T22:44:14.182Z,76.20
2018-07-05T22:46:53.961Z,76.50
2018-07-05T22:49:33.771Z,76.60
2018-07-05T22:52:13.382Z,76.90
2018-07-05T22:54:53.084Z,77.60
2018-07-05T22:57:32.843Z,77.30
2018-07-05T23:00:12.647Z,76.90
2018-07-05T23:02:52.395Z,76.60
2018-07-05T23:05:32.106Z,76.60
2018-07-05T23:08:11.835Z,76.50
2018-07-05T23:10:51.608Z,76.70
2018-07-05T23:13:31.162Z,77.00
2018-07-05T23:16:11.034Z,77.30
2018-07-05T23:18:50.746Z,77.50
2018-07-05T23:21:30.522Z,77.60
2018-07-05T23:24:10.174Z,78.00
2018-07-05T23:26:49.735Z,78.30
2018-07-05T23:29:29.435Z,78.60
2018-07-05T23:32:09.059Z,78.90
2018-07-05T23:34:48.746Z,79.10
2018-07-05T23:37:28.443Z,79.30
2018-07-05T23:40:08.209Z,79.50
2018-07-05T23:42:48.033Z,79.50
2018-07-05T23:45:27.595Z,79.50
2018-07-05T23:48:07.236Z,79.90
2018-07-05T23:50:46.907Z,80.00
2018-07-05T23:53:26.371Z,80.40
2018-07-05T23:56:06.040Z,80.70
2018-07-05T23:58:45.799Z,80.90
